createdAt,value
2018-05-26T00:02:10.011Z,91.10
2018-05-26T00:04:38.432Z,90.80
2018-05-26T00:07:07.063Z,91.20
2018-05-26T00:09:35.692Z,91.30
2018-05-26T00:12:04.519Z,91.20
2018-05-26T00:14:33.498Z,91.30
2018-05-26T00:17:02.944Z,91.30
2018-05-26T00:19:31.086Z,91.20
2018-05-26T00:22:01.036Z,91.40
2018-05-26T00:24:29.563Z,91.40
2018-05-26T00:26:57.983Z,91.50
2018-05-26T00:29:26.510Z,91.60
2018-05-26T00:31:54.703Z,91.70
2018-05-26T00:34:23.235Z,91.60
2018-05-26T00:36:51.881Z,91.80
2018-05-26T00:39:20.026Z,91.40
2018-05-26T00:41:49.529Z,91.80
2018-05-26T00:44:18.395Z,91.60
2018-05-26T00:46:46.575Z,91.70
2018-05-26T00:49:14.810Z,92.00
2018-05-26T00:51:43.240Z,92.10
2018-05-26T00:54:11.661Z,92.10
2018-05-26T00:56:40.071Z,92.20
2018-05-26T00:59:08.713Z,92.30
2018-05-26T01:01:36.914Z,92.50
2018-05-26T01:04:05.867Z,92.40
2018-05-26T01:06:35.015Z,92.30
2018-05-26T01:09:03.965Z,92.40
2018-05-26T01:11:33.290Z,92.50
2018-05-26T01:14:01.747Z,92.40
2018-05-26T01:16:30.337Z,92.50
2018-05-26T01:18:58.998Z,92.30
2018-05-26T01:21:27.598Z,92.60
2018-05-26T01:23:56.163Z,92.70
2018-05-26T01:26:24.602Z,92.90
2018-05-26T01:28:54.677Z,93.00
2018-05-26T01:31:23.515Z,93.00
2018-05-26T01:33:52.141Z,93.00
2018-05-26T01:36:20.776Z,93.10
2018-05-26T01:38:48.930Z,93.10
2018-05-26T01:41:17.558Z,93.00
2018-05-26T01:43:46.029Z,93.30
2018-05-26T01:46:14.218Z,93.10
2018-05-26T01:48:42.882Z,93.10
2018-05-26T01:51:11.476Z,93.20
2018-05-26T01:53:39.659Z,93.30
2018-05-26T01:56:08.563Z,93.40
2018-05-26T01:58:37.194Z,93.90
2018-05-26T02:01:05.615Z,93.50
2018-05-26T02:03:34.036Z,93.60
2018-05-26T02:06:02.555Z,93.60
2018-05-26T02:08:31.495Z,93.60
2018-05-26T02:11:00.449Z,93.80
2018-05-26T02:13:28.872Z,93.90
2018-05-26T02:15:57.047Z,93.90
2018-05-26T02:18:26.310Z,93.80
2018-05-26T02:20:54.503Z,93.80
2018-05-26T02:23:22.691Z,93.90
2018-05-26T02:25:51.772Z,93.90
2018-05-26T02:28:20.782Z,94.30
2018-05-26T02:30:49.282Z,94.30
2018-05-26T02:33:17.434Z,94.20
2018-05-26T02:35:47.614Z,94.30
2018-05-26T02:38:17.052Z,94.30
2018-05-26T02:40:45.682Z,94.20
2018-05-26T02:43:14.835Z,94.40
2018-05-26T02:45:44.395Z,94.60
2018-05-26T02:48:12.937Z,94.60
2018-05-26T02:50:41.351Z,94.80
2018-05-26T02:53:11.548Z,94.90
2018-05-26T02:55:39.751Z,94.20
2018-05-26T02:58:08.188Z,94.00
2018-05-26T03:00:36.812Z,94.10
2018-05-26T03:03:05.512Z,94.20
2018-05-26T03:05:39.319Z,94.30
2018-05-26T03:08:14.296Z,93.20
2018-05-26T03:10:48.431Z,93.20
2018-05-26T03:13:22.251Z,92.80
2018-05-26T03:18:51.849Z,92.90
2018-05-26T03:21:19.990Z,92.80
2018-05-26T03:23:48.450Z,93.10
2018-05-26T03:26:16.687Z,93.30
2018-05-26T03:28:45.847Z,93.20
2018-05-26T03:31:15.001Z,93.00
2018-05-26T03:33:44.153Z,93.20
2018-05-26T03:36:14.564Z,93.20
2018-05-26T03:38:42.710Z,93.20
2018-05-26T03:41:11.402Z,93.10
2018-05-26T03:43:39.550Z,92.90
2018-05-26T03:46:07.769Z,92.70
2018-05-26T03:48:36.722Z,93.00
2018-05-26T03:51:05.922Z,92.90
2018-05-26T03:53:34.551Z,93.10
2018-05-26T03:56:28.551Z,93.10
2018-05-26T03:59:09.317Z,93.10
2018-05-26T04:01:37.486Z,92.70
2018-05-26T04:04:06.047Z,92.40
2018-05-26T04:06:34.468Z,92.10
2018-05-26T04:09:02.630Z,92.50
2018-05-26T04:11:30.817Z,92.40
2018-05-26T04:14:00.044Z,92.50
2018-05-26T04:16:29.405Z,92.50
2018-05-26T04:18:58.036Z,92.50
2018-05-26T04:21:26.679Z,92.40
2018-05-26T04:23:54.867Z,92.50
2018-05-26T04:26:24.202Z,92.40
2018-05-26T04:28:52.870Z,92.40
2018-05-26T04:31:22.126Z,91.90
2018-05-26T04:33:50.652Z,91.90
2018-05-26T04:36:19.494Z,91.90
2018-05-26T04:38:48.422Z,90.20
2018-05-26T04:41:17.419Z,90.30
2018-05-26T04:43:45.615Z,90.30
2018-05-26T04:46:15.056Z,88.90
2018-05-26T04:48:43.582Z,87.80
2018-05-26T04:51:11.738Z,88.50
2018-05-26T04:53:40.216Z,88.20
2018-05-26T04:56:08.637Z,87.90
2018-05-26T04:58:37.058Z,88.40
2018-05-26T05:01:05.479Z,88.40
2018-05-26T05:03:33.682Z,88.70
2018-05-26T05:06:02.623Z,88.80
2018-05-26T05:08:30.819Z,88.70
2018-05-26T05:10:59.269Z,88.00
2018-05-26T05:13:27.451Z,88.00
2018-05-26T05:15:56.518Z,89.30
2018-05-26T05:18:25.698Z,86.90
2018-05-26T05:20:54.926Z,86.30
2018-05-26T05:23:23.568Z,85.20
2018-05-26T05:25:52.617Z,86.50
2018-05-26T05:28:21.446Z,85.50
2018-05-26T05:30:49.987Z,84.60
2018-05-26T05:33:18.611Z,84.90
2018-05-26T05:35:47.137Z,85.50
2018-05-26T05:38:16.394Z,85.30
2018-05-26T05:40:44.574Z,84.20
2018-05-26T05:43:12.835Z,83.30
2018-05-26T05:45:41.971Z,83.80
2018-05-26T05:48:10.601Z,83.30
2018-05-26T05:50:38.862Z,83.00
2018-05-26T05:53:07.747Z,82.40
2018-05-26T05:55:36.909Z,82.40
2018-05-26T05:58:06.051Z,80.30
2018-05-26T06:00:35.935Z,80.20
2018-05-26T06:03:04.538Z,79.80
2018-05-26T06:05:32.763Z,78.40
2018-05-26T06:08:01.419Z,77.80
2018-05-26T06:10:30.048Z,77.90
2018-05-26T06:12:59.201Z,76.90
2018-05-26T06:15:27.733Z,76.40
2018-05-26T06:17:55.866Z,76.70
2018-05-26T06:20:24.403Z,75.20
2018-05-26T06:22:53.500Z,76.10
2018-05-26T06:25:21.683Z,75.70
2018-05-26T06:27:49.858Z,75.90
2018-05-26T06:30:18.886Z,76.10
2018-05-26T06:32:47.811Z,74.20
2018-05-26T06:35:16.248Z,74.00
2018-05-26T06:37:44.703Z,74.20
2018-05-26T06:40:12.818Z,73.10
2018-05-26T06:42:41.092Z,72.40
2018-05-26T06:45:09.931Z,72.20
2018-05-26T06:47:38.859Z,72.30
2018-05-26T06:50:07.504Z,72.90
2018-05-26T06:52:35.647Z,70.60
2018-05-26T06:55:04.123Z,69.80
2018-05-26T06:57:32.663Z,70.00
2018-05-26T07:00:00.811Z,68.90
2018-05-26T07:02:29.703Z,68.90
2018-05-26T07:04:58.866Z,68.50
2018-05-26T07:07:27.288Z,68.90
2018-05-26T07:09:55.540Z,69.00
2018-05-26T07:12:23.722Z,68.00
2018-05-26T07:14:52.343Z,68.00
2018-05-26T07:17:21.180Z,67.40
2018-05-26T07:19:49.362Z,67.90
2018-05-26T07:22:17.986Z,66.20
2018-05-26T07:24:46.477Z,66.50
2018-05-26T07:27:14.594Z,67.10
2018-05-26T07:29:44.539Z,65.50
2018-05-26T07:32:13.484Z,65.50
2018-05-26T07:34:42.115Z,63.80
2018-05-26T07:37:10.745Z,63.60
2018-05-26T07:39:39.689Z,64.30
2018-05-26T07:42:08.319Z,64.50
2018-05-26T07:44:36.695Z,62.90
2018-05-26T07:47:05.996Z,61.50
2018-05-26T07:49:34.627Z,61.40
2018-05-26T07:52:02.779Z,62.80
2018-05-26T07:54:31.979Z,58.90
2018-05-26T07:57:00.587Z,57.80
2018-05-26T07:59:29.670Z,58.50
2018-05-26T08:01:57.847Z,58.90
2018-05-26T08:04:26.438Z,59.50
2018-05-26T08:06:55.769Z,60.10
2018-05-26T08:09:24.817Z,60.10
2018-05-26T08:11:53.410Z,58.30
2018-05-26T08:14:21.978Z,58.00
2018-05-26T08:16:51.439Z,58.70
2018-05-26T08:19:20.271Z,58.70
2018-05-26T08:21:48.483Z,56.80
2018-05-26T08:24:17.424Z,56.90
2018-05-26T08:26:46.258Z,57.20
2018-05-26T08:29:14.660Z,56.20
2018-05-26T08:31:42.842Z,56.80
2018-05-26T08:34:11.942Z,56.00
2018-05-26T08:36:40.912Z,55.60
2018-05-26T08:39:10.054Z,54.50
2018-05-26T08:41:38.576Z,54.30
2018-05-26T08:44:07.207Z,55.40
2018-05-26T08:46:36.427Z,54.40
2018-05-26T08:49:04.606Z,54.40
2018-05-26T08:51:33.828Z,53.90
2018-05-26T08:54:02.353Z,51.80
2018-05-26T08:56:31.387Z,52.80
2018-05-26T08:58:59.927Z,53.10
2018-05-26T09:01:28.311Z,53.60
2018-05-26T09:03:56.495Z,54.60
2018-05-26T09:06:24.681Z,54.40
2018-05-26T09:08:53.821Z,55.00
2018-05-26T09:11:22.451Z,53.90
2018-05-26T09:13:51.486Z,53.40
2018-05-26T09:16:20.014Z,52.90
2018-05-26T09:18:48.412Z,52.60
2018-05-26T09:21:16.582Z,52.60
2018-05-26T09:23:46.402Z,54.40
2018-05-26T09:26:16.306Z,54.20
2018-05-26T09:28:45.250Z,54.20
2018-05-26T09:31:13.480Z,53.40
2018-05-26T09:33:42.616Z,54.30
2018-05-26T09:36:11.468Z,52.50
2018-05-26T09:38:39.633Z,49.80
2018-05-26T09:41:07.815Z,51.40
2018-05-26T09:43:36.775Z,53.60
2018-05-26T09:46:06.624Z,52.20
2018-05-26T09:48:34.809Z,52.00
2018-05-26T09:51:03.423Z,52.00
2018-05-26T09:53:32.089Z,52.70
2018-05-26T09:56:00.768Z,52.00
2018-05-26T09:58:28.858Z,53.60
2018-05-26T10:00:57.518Z,53.70
2018-05-26T10:03:25.697Z,54.00
2018-05-26T10:05:54.648Z,53.10
2018-05-26T10:08:24.081Z,52.80
2018-05-26T10:10:52.708Z,52.80
2018-05-26T10:13:21.234Z,53.00
2018-05-26T10:15:51.314Z,53.20
2018-05-26T10:18:20.482Z,52.60
2018-05-26T10:20:48.647Z,52.40
2018-05-26T10:23:17.112Z,52.50
2018-05-26T10:25:46.374Z,53.00
2018-05-26T10:28:14.791Z,53.00
2018-05-26T10:30:44.673Z,53.90
2018-05-26T10:33:13.500Z,53.80
2018-05-26T10:35:42.143Z,51.20
2018-05-26T10:38:10.300Z,49.50
2018-05-26T10:40:39.716Z,49.20
2018-05-26T10:43:08.761Z,49.20
2018-05-26T10:45:39.706Z,48.30
2018-05-26T10:48:08.639Z,47.70
2018-05-26T10:50:37.670Z,47.70
2018-05-26T10:53:06.108Z,49.70
2018-05-26T10:55:35.250Z,47.60
2018-05-26T10:58:03.678Z,47.70
2018-05-26T11:00:31.823Z,47.50
2018-05-26T11:03:00.087Z,48.90
2018-05-26T11:05:29.242Z,44.90
2018-05-26T11:07:57.424Z,46.30
2018-05-26T11:10:25.890Z,46.50
2018-05-26T11:12:55.355Z,45.80
2018-05-26T11:15:23.530Z,46.00
2018-05-26T11:17:52.110Z,47.70
2018-05-26T11:20:20.754Z,45.70
2018-05-26T11:22:48.863Z,46.20
2018-05-26T11:25:18.734Z,47.70
2018-05-26T11:27:47.554Z,47.70
2018-05-26T11:30:15.698Z,44.70
2018-05-26T11:32:44.193Z,43.40
2018-05-26T11:35:12.342Z,43.60
2018-05-26T11:37:40.806Z,44.10
2018-05-26T11:40:09.415Z,43.10
2018-05-26T11:42:37.598Z,42.60
2018-05-26T11:45:05.819Z,43.00
2018-05-26T11:47:34.401Z,44.10
2018-05-26T11:50:05.228Z,43.40
2018-05-26T11:52:34.994Z,43.10
2018-05-26T11:55:05.096Z,42.60
2018-05-26T11:57:33.270Z,42.50
2018-05-26T12:00:02.356Z,42.30
2018-05-26T12:02:30.538Z,42.70
2018-05-26T12:04:59.722Z,42.70
2018-05-26T12:07:28.143Z,41.30
2018-05-26T12:09:56.380Z,40.60
2018-05-26T12:12:26.656Z,41.00
2018-05-26T12:14:54.798Z,41.00
2018-05-26T12:17:23.509Z,40.00
2018-05-26T12:19:52.546Z,41.20
2018-05-26T12:22:20.954Z,40.00
2018-05-26T12:24:49.597Z,40.90
2018-05-26T12:27:21.347Z,41.30
2018-05-26T12:29:49.783Z,41.00
2018-05-26T12:32:18.308Z,42.10
2018-05-26T12:34:47.971Z,41.20
2018-05-26T12:37:16.613Z,40.20
2018-05-26T12:39:45.647Z,42.40
2018-05-26T12:42:15.366Z,41.10
2018-05-26T12:44:44.592Z,41.00
2018-05-26T12:47:13.082Z,39.80
2018-05-26T12:49:41.946Z,39.70
2018-05-26T12:52:11.109Z,39.70
2018-05-26T12:54:39.290Z,39.70
2018-05-26T12:57:08.354Z,37.70
2018-05-26T12:59:36.586Z,37.70
2018-05-26T13:02:06.675Z,40.40
2018-05-26T13:04:34.834Z,40.10
2018-05-26T13:07:03.482Z,39.00
2018-05-26T13:09:31.683Z,38.30
2018-05-26T13:12:00.867Z,37.50
2018-05-26T13:14:29.512Z,37.70
2018-05-26T13:16:58.547Z,39.60
2018-05-26T13:19:27.190Z,38.00
2018-05-26T13:21:55.822Z,39.20
2018-05-26T13:24:24.973Z,38.30
2018-05-26T13:26:53.574Z,39.20
2018-05-26T13:29:22.638Z,38.60
2018-05-26T13:31:51.699Z,37.30
2018-05-26T13:34:20.122Z,35.80
2018-05-26T13:36:48.534Z,35.60
2018-05-26T13:39:17.471Z,36.30
2018-05-26T13:41:45.650Z,37.10
2018-05-26T13:44:14.522Z,37.50
2018-05-26T13:46:43.365Z,35.90
2018-05-26T13:49:12.521Z,37.10
2018-05-26T13:51:40.730Z,37.10
2018-05-26T13:54:09.266Z,36.10
2018-05-26T13:56:37.402Z,36.30
2018-05-26T13:59:06.406Z,36.00
2018-05-26T14:01:34.586Z,35.90
2018-05-26T14:04:02.863Z,36.30
2018-05-26T14:06:31.480Z,36.80
2018-05-26T14:08:59.622Z,36.90
2018-05-26T14:11:29.572Z,36.70
2018-05-26T14:13:58.411Z,36.50
2018-05-26T14:16:27.239Z,37.20
2018-05-26T14:18:55.675Z,38.00
2018-05-26T14:21:24.719Z,37.10
2018-05-26T14:23:53.542Z,36.30
2018-05-26T14:26:22.583Z,35.60
2018-05-26T14:28:51.199Z,35.00
2018-05-26T14:31:20.062Z,37.60
2018-05-26T14:33:48.675Z,36.10
2018-05-26T14:36:18.510Z,36.70
2018-05-26T14:38:48.042Z,35.40
2018-05-26T14:41:16.580Z,35.00
2018-05-26T14:43:44.727Z,33.20
2018-05-26T14:46:13.218Z,32.80
2018-05-26T14:48:41.362Z,32.80
2018-05-26T14:51:10.408Z,31.50
2018-05-26T14:53:38.721Z,31.20
2018-05-26T14:56:07.421Z,30.50
2018-05-26T14:58:38.133Z,32.60
2018-05-26T15:01:06.343Z,31.90
2018-05-26T15:03:34.525Z,31.30
2018-05-26T15:06:02.707Z,29.60
2018-05-26T15:08:32.338Z,28.90
2018-05-26T15:11:01.486Z,28.80
2018-05-26T15:13:30.026Z,30.10
2018-05-26T15:15:58.298Z,29.20
2018-05-26T15:18:27.166Z,29.80
2018-05-26T15:20:55.374Z,28.30
2018-05-26T15:23:24.426Z,28.30
2018-05-26T15:25:52.605Z,27.30
2018-05-26T15:28:20.820Z,27.80
2018-05-26T15:30:51.271Z,29.70
2018-05-26T15:33:20.424Z,29.70
2018-05-26T15:35:49.055Z,29.20
2018-05-26T15:38:17.476Z,28.50
2018-05-26T15:40:46.303Z,29.70
2018-05-26T15:43:16.290Z,30.30
2018-05-26T15:45:45.143Z,30.30
2018-05-26T15:48:13.773Z,31.60
2018-05-26T15:50:42.407Z,32.80
2018-05-26T15:53:11.555Z,34.10
2018-05-26T15:55:40.079Z,34.10
2018-05-26T15:58:08.242Z,34.40
2018-05-26T16:00:37.226Z,35.60
2018-05-26T16:03:05.662Z,37.10
2018-05-26T16:05:34.079Z,36.60
2018-05-26T16:08:02.605Z,35.20
2018-05-26T16:10:31.862Z,35.40
2018-05-26T16:13:00.818Z,35.60
2018-05-26T16:15:29.435Z,35.60
2018-05-26T16:17:57.611Z,37.70
2018-05-26T16:20:26.602Z,38.20
2018-05-26T16:22:55.224Z,38.80
2018-05-26T16:25:23.359Z,37.10
2018-05-26T16:27:52.585Z,36.50
2018-05-26T16:30:21.101Z,36.50
2018-05-26T16:32:49.637Z,36.50
2018-05-26T16:35:18.058Z,37.20
2018-05-26T16:37:46.211Z,37.10
2018-05-26T16:40:15.241Z,37.10
2018-05-26T16:42:43.790Z,37.00
2018-05-26T16:45:12.265Z,36.80
2018-05-26T16:47:41.418Z,37.30
2018-05-26T16:50:09.764Z,38.30
2018-05-26T16:52:38.365Z,40.00
2018-05-26T16:55:06.515Z,39.10
2018-05-26T16:57:34.694Z,37.70
2018-05-26T17:00:04.568Z,38.30
2018-05-26T17:02:32.757Z,38.90
2018-05-26T17:05:01.417Z,39.20
2018-05-26T17:07:29.554Z,37.70
2018-05-26T17:09:58.149Z,38.50
2018-05-26T17:12:26.780Z,38.30
2018-05-26T17:14:55.410Z,38.50
2018-05-26T17:17:23.902Z,38.70
2018-05-26T17:19:52.530Z,38.70
2018-05-26T17:22:21.391Z,38.40
2018-05-26T17:24:49.921Z,38.70
2018-05-26T17:27:18.354Z,38.70
2018-05-26T17:29:46.517Z,39.40
2018-05-26T17:32:15.443Z,38.10
2018-05-26T17:34:43.995Z,38.10
2018-05-26T17:37:12.977Z,38.50
2018-05-26T17:39:41.607Z,39.40
2018-05-26T17:42:10.430Z,39.50
2018-05-26T17:44:38.610Z,38.60
2018-05-26T17:47:07.383Z,38.20
2018-05-26T17:49:35.812Z,37.90
2018-05-26T17:52:04.445Z,37.70
2018-05-26T17:54:32.934Z,38.10
2018-05-26T17:57:01.605Z,37.50
2018-05-26T17:59:30.651Z,38.40
2018-05-26T18:02:00.418Z,37.90
2018-05-26T18:04:29.567Z,38.30
2018-05-26T18:06:58.106Z,38.70
2018-05-26T18:09:26.254Z,38.20
2018-05-26T18:11:54.430Z,38.20
2018-05-26T18:14:22.953Z,37.90
2018-05-26T18:16:51.896Z,38.60
2018-05-26T18:19:21.256Z,39.30
2018-05-26T18:21:50.096Z,39.50
2018-05-26T18:24:18.275Z,39.30
2018-05-26T18:26:47.875Z,39.00
2018-05-26T18:29:17.643Z,40.10
2018-05-26T18:31:46.079Z,40.00
2018-05-26T18:34:14.352Z,40.30
2018-05-26T18:36:42.542Z,40.50
2018-05-26T18:39:11.554Z,40.80
2018-05-26T18:41:39.725Z,40.50
2018-05-26T18:44:08.916Z,40.70
2018-05-26T18:46:37.337Z,40.50
2018-05-26T18:49:05.487Z,41.10
2018-05-26T18:51:35.537Z,40.60
2018-05-26T18:54:03.751Z,40.50
2018-05-26T18:56:32.170Z,40.30
2018-05-26T18:59:00.782Z,41.00
2018-05-26T19:01:29.295Z,41.00
2018-05-26T19:03:58.172Z,40.60
2018-05-26T19:06:27.317Z,40.70
2018-05-26T19:08:55.948Z,40.90
2018-05-26T19:11:24.254Z,40.80
2018-05-26T19:13:53.591Z,41.10
2018-05-26T19:16:22.673Z,41.10
2018-05-26T19:18:51.199Z,41.60
2018-05-26T19:21:19.726Z,41.80
2018-05-26T19:23:48.111Z,42.20
2018-05-26T19:26:16.569Z,42.10
2018-05-26T19:28:45.929Z,42.70
2018-05-26T19:31:14.210Z,42.50
2018-05-26T19:33:42.834Z,42.50
2018-05-26T19:36:11.583Z,42.60
2018-05-26T19:38:40.243Z,42.30
2018-05-26T19:41:08.442Z,42.10
2018-05-26T19:43:36.946Z,42.40
2018-05-26T19:46:06.118Z,42.50
2018-05-26T19:48:34.295Z,43.10
2018-05-26T19:51:02.542Z,43.30
2018-05-26T19:53:31.186Z,42.50
2018-05-26T19:55:59.610Z,43.10
2018-05-26T19:58:28.655Z,43.50
2018-05-26T20:00:57.406Z,43.80
2018-05-26T20:03:25.603Z,44.20
2018-05-26T20:05:54.743Z,44.70
2018-05-26T20:08:23.389Z,44.40
2018-05-26T20:10:51.538Z,44.50
2018-05-26T20:13:20.332Z,44.30
2018-05-26T20:15:48.486Z,44.40
2018-05-26T20:18:16.965Z,44.70
2018-05-26T20:20:45.458Z,44.50
2018-05-26T20:23:13.913Z,44.30
2018-05-26T20:25:42.507Z,44.10
2018-05-26T20:28:11.374Z,44.50
2018-05-26T20:30:39.921Z,44.90
2018-05-26T20:33:08.643Z,44.90
2018-05-26T20:35:38.713Z,45.10
2018-05-26T20:38:07.558Z,45.10
2018-05-26T20:40:36.927Z,44.10
2018-05-26T20:43:05.106Z,44.70
2018-05-26T20:45:33.987Z,45.40
2018-05-26T20:48:02.512Z,45.30
2018-05-26T20:50:31.666Z,45.30
2018-05-26T20:53:00.191Z,46.00
2018-05-26T20:55:30.167Z,46.20
2018-05-26T20:57:58.808Z,46.70
2018-05-26T21:00:27.439Z,46.60
2018-05-26T21:02:56.035Z,46.70
2018-05-26T21:05:24.262Z,46.40
2018-05-26T21:07:52.482Z,46.80
2018-05-26T21:10:21.542Z,47.40
2018-05-26T21:12:50.679Z,47.20
2018-05-26T21:15:20.160Z,47.80
2018-05-26T21:17:48.859Z,47.60
2018-05-26T21:20:17.420Z,48.00
2018-05-26T21:22:45.567Z,48.60
2018-05-26T21:25:14.158Z,48.90
2018-05-26T21:27:42.820Z,49.60
2018-05-26T21:30:11.209Z,50.00
2018-05-26T21:32:39.358Z,50.10
2018-05-26T21:35:07.535Z,49.80
2018-05-26T21:37:36.667Z,49.30
2018-05-26T21:40:06.215Z,49.70
2018-05-26T21:42:34.446Z,49.70
2018-05-26T21:45:02.855Z,50.40
2018-05-26T21:47:31.934Z,50.60
2018-05-26T21:50:01.295Z,50.30
2018-05-26T21:52:29.577Z,50.30
2018-05-26T21:54:58.647Z,51.10
2018-05-26T21:57:28.381Z,50.50
2018-05-26T21:59:56.554Z,50.50
2018-05-26T22:02:25.137Z,50.40
2018-05-26T22:04:53.324Z,50.90
2018-05-26T22:07:22.270Z,50.30
2018-05-26T22:09:50.858Z,50.60
2018-05-26T22:12:19.384Z,50.90
2018-05-26T22:14:48.838Z,51.50
2018-05-26T22:17:17.480Z,51.50
2018-05-26T22:19:46.527Z,51.60
2018-05-26T22:22:15.053Z,51.60
2018-05-26T22:24:43.235Z,51.60
2018-05-26T22:27:11.503Z,51.70
2018-05-26T22:29:41.152Z,53.00
2018-05-26T22:32:10.136Z,53.20
2018-05-26T22:34:38.621Z,52.70
2018-05-26T22:37:07.147Z,53.40
2018-05-26T22:39:36.810Z,53.40
2018-05-26T22:42:05.244Z,52.90
2018-05-26T22:44:33.382Z,53.10
2018-05-26T22:47:03.827Z,53.50
2018-05-26T22:49:33.226Z,54.10
2018-05-26T22:52:02.270Z,54.00
2018-05-26T22:54:30.447Z,53.00
2018-05-26T22:56:59.646Z,54.20
2018-05-26T22:59:28.265Z,54.10
2018-05-26T23:01:56.406Z,55.10
2018-05-26T23:04:24.963Z,54.70
2018-05-26T23:06:53.151Z,54.70
2018-05-26T23:09:21.326Z,54.70
2018-05-26T23:11:50.267Z,54.90
2018-05-26T23:14:18.436Z,54.60
2018-05-26T23:16:47.250Z,54.80
2018-05-26T23:19:15.806Z,54.80
2018-05-26T23:21:45.311Z,55.40
2018-05-26T23:24:14.450Z,54.20
2018-05-26T23:26:43.615Z,54.00
2018-05-26T23:29:12.038Z,54.40
2018-05-26T23:31:40.966Z,54.20
2018-05-26T23:34:10.132Z,54.70
2018-05-26T23:36:38.727Z,54.40
2018-05-26T23:39:07.400Z,54.40
2018-05-26T23:41:35.534Z,54.50
2018-05-26T23:44:03.997Z,54.60
2018-05-26T23:46:33.179Z,54.40
2018-05-26T23:49:01.903Z,54.60
2018-05-26T23:51:30.842Z,55.10
2018-05-26T23:54:00.219Z,55.20
2018-05-26T23:56:28.358Z,55.10
2018-05-26T23:58:58.314Z,55.40
